createdAt,value
2018-04-12T00:00:39.921Z,12.38
2018-04-12T00:03:05.995Z,12.30
2018-04-12T00:05:32.016Z,12.28
2018-04-12T00:07:58.062Z,12.24
2018-04-12T00:10:24.075Z,12.16
2018-04-12T00:12:50.133Z,12.11
2018-04-12T00:15:16.111Z,12.09
2018-04-12T00:17:42.157Z,12.09
2018-04-12T00:20:08.168Z,12.11
2018-04-12T00:22:34.172Z,12.09
2018-04-12T00:25:00.199Z,12.12
2018-04-12T00:27:26.204Z,12.12
2018-04-12T00:29:52.200Z,12.11
2018-04-12T00:32:18.266Z,12.04
2018-04-12T00:34:44.253Z,12.00
2018-04-12T00:37:10.236Z,11.98
2018-04-12T00:39:36.432Z,11.91
2018-04-12T00:42:02.413Z,11.88
2018-04-12T00:44:35.433Z,11.83
2018-04-12T00:47:01.516Z,11.77
2018-04-12T00:49:27.649Z,11.76
2018-04-12T00:51:53.632Z,11.73
2018-04-12T00:54:19.628Z,11.74
2018-04-12T00:56:45.671Z,11.76
2018-04-12T00:59:12.479Z,11.83
2018-04-12T01:01:38.508Z,11.80
2018-04-12T01:04:04.557Z,11.80
2018-04-12T01:06:30.605Z,11.81
2018-04-12T01:08:56.604Z,11.80
2018-04-12T01:11:22.609Z,11.77
2018-04-12T01:13:48.661Z,11.79
2018-04-12T01:16:14.744Z,11.70
2018-04-12T01:18:40.923Z,11.62
2018-04-12T01:21:06.924Z,11.54
2018-04-12T01:23:32.901Z,11.49
2018-04-12T01:25:59.045Z,11.44
2018-04-12T01:28:25.165Z,11.36
2018-04-12T01:30:51.172Z,11.33
2018-04-12T01:33:17.173Z,11.28
2018-04-12T01:35:44.104Z,11.22
2018-04-12T01:38:10.139Z,11.13
2018-04-12T01:40:36.183Z,11.09
2018-04-12T01:43:02.241Z,11.02
2018-04-12T01:45:28.269Z,11.00
2018-04-12T01:47:54.278Z,10.99
2018-04-12T01:50:20.317Z,10.92
2018-04-12T01:52:46.376Z,10.85
2018-04-12T01:55:12.449Z,10.81
2018-04-12T01:57:38.485Z,10.74
2018-04-12T02:00:04.495Z,10.74
2018-04-12T02:02:30.505Z,10.69
2018-04-12T02:04:56.509Z,10.65
2018-04-12T02:07:22.509Z,10.61
2018-04-12T02:09:48.494Z,10.54
2018-04-12T02:12:14.490Z,10.51
2018-04-12T02:14:40.503Z,10.43
2018-04-12T02:17:06.481Z,10.41
2018-04-12T02:19:32.498Z,10.39
2018-04-12T02:21:58.494Z,10.34
2018-04-12T02:24:24.688Z,10.34
2018-04-12T02:26:50.718Z,10.28
2018-04-12T02:29:17.045Z,10.23
2018-04-12T02:31:43.734Z,10.20
2018-04-12T02:34:09.745Z,10.14
2018-04-12T02:36:35.768Z,10.09
2018-04-12T02:39:01.806Z,10.05
2018-04-12T02:41:27.844Z,10.03
2018-04-12T02:43:53.871Z,10.00
2018-04-12T02:46:19.968Z,9.98
2018-04-12T02:48:45.980Z,9.93
2018-04-12T02:51:12.001Z,9.85
2018-04-12T02:53:38.072Z,9.85
2018-04-12T02:56:04.493Z,9.78
2018-04-12T02:58:30.529Z,9.73
2018-04-12T03:00:56.626Z,9.70
2018-04-12T03:03:22.660Z,9.72
2018-04-12T03:05:48.695Z,9.68
2018-04-12T03:08:14.710Z,9.63
2018-04-12T03:10:40.751Z,9.59
2018-04-12T03:13:06.772Z,9.56
2018-04-12T03:15:33.410Z,9.56
2018-04-12T03:17:59.524Z,9.52
2018-04-12T03:20:25.525Z,9.49
2018-04-12T03:22:51.598Z,9.50
2018-04-12T03:25:17.667Z,9.48
2018-04-12T03:27:43.710Z,9.46
2018-04-12T03:30:09.734Z,9.45
2018-04-12T03:32:35.784Z,9.39
2018-04-12T03:35:01.931Z,9.38
2018-04-12T03:37:27.954Z,9.36
2018-04-12T03:39:54.030Z,9.33
2018-04-12T03:42:20.051Z,9.34
2018-04-12T03:44:46.057Z,9.31
2018-04-12T03:47:12.063Z,9.33
2018-04-12T03:49:38.112Z,9.27
2018-04-12T03:52:04.129Z,9.23
2018-04-12T03:54:30.131Z,9.19
2018-04-12T03:56:56.148Z,9.15
2018-04-12T03:59:22.201Z,9.11
2018-04-12T04:01:48.277Z,9.05
2018-04-12T04:04:14.264Z,9.01
2018-04-12T04:06:40.309Z,9.02
2018-04-12T04:09:06.336Z,8.95
2018-04-12T04:11:32.320Z,8.93
2018-04-12T04:13:58.350Z,8.89
2018-04-12T04:16:36.393Z,8.85
2018-04-12T04:19:14.583Z,8.80
2018-04-12T04:21:40.647Z,8.78
2018-04-12T04:24:06.693Z,8.79
2018-04-12T04:26:32.717Z,8.74
2018-04-12T04:28:58.969Z,8.74
2018-04-12T04:31:25.088Z,8.70
2018-04-12T04:33:51.215Z,8.64
2018-04-12T04:36:17.225Z,8.61
2018-04-12T04:38:43.434Z,8.59
2018-04-12T04:41:09.500Z,8.55
2018-04-12T04:43:35.558Z,8.47
2018-04-12T04:46:01.675Z,8.49
2018-04-12T04:48:27.731Z,8.44
2018-04-12T04:50:53.849Z,8.37
2018-04-12T04:53:20.644Z,8.38
2018-04-12T04:55:46.680Z,8.30
2018-04-12T04:58:12.672Z,8.32
2018-04-12T05:00:38.739Z,8.28
2018-04-12T05:03:04.992Z,8.27
2018-04-12T05:05:31.131Z,8.25
2018-04-12T05:07:57.222Z,8.29
2018-04-12T05:10:23.259Z,8.23
2018-04-12T05:12:49.372Z,8.18
2018-04-12T05:15:15.518Z,8.15
2018-04-12T05:17:41.656Z,8.14
2018-04-12T05:20:07.699Z,8.15
2018-04-12T05:22:33.749Z,8.13
2018-04-12T05:24:59.970Z,8.16
2018-04-12T05:27:25.967Z,8.17
2018-04-12T05:29:51.974Z,8.23
2018-04-12T05:32:17.992Z,8.25
2018-04-12T05:34:44.038Z,8.27
2018-04-12T05:37:10.559Z,8.28
2018-04-12T05:39:37.097Z,8.31
2018-04-12T05:42:03.484Z,8.37
2018-04-12T05:44:29.525Z,8.37
2018-04-12T05:46:55.552Z,8.42
2018-04-12T05:49:21.646Z,8.48
2018-04-12T05:51:47.703Z,8.53
2018-04-12T05:54:13.700Z,8.58
2018-04-12T05:56:39.829Z,8.58
2018-04-12T05:59:05.938Z,8.67
2018-04-12T06:01:31.963Z,8.75
2018-04-12T06:03:58.028Z,8.77
2018-04-12T06:06:24.141Z,8.88
2018-04-12T06:08:50.166Z,8.89
2018-04-12T06:11:16.216Z,8.94
2018-04-12T06:13:42.232Z,8.95
2018-04-12T06:16:08.315Z,8.98
2018-04-12T06:18:34.321Z,9.06
2018-04-12T06:21:00.325Z,9.03
2018-04-12T06:23:26.420Z,9.05
2018-04-12T06:25:52.792Z,9.18
2018-04-12T06:28:18.859Z,9.11
2018-04-12T06:30:44.870Z,9.06
2018-04-12T06:33:10.974Z,9.12
2018-04-12T06:35:36.967Z,9.21
2018-04-12T06:38:02.986Z,9.26
2018-04-12T06:40:29.166Z,9.32
2018-04-12T06:42:55.181Z,9.27
2018-04-12T06:45:21.307Z,9.36
2018-04-12T06:47:47.359Z,9.33
2018-04-12T06:50:13.490Z,9.34
2018-04-12T06:52:46.961Z,9.29
2018-04-12T06:55:13.729Z,9.40
2018-04-12T06:57:39.803Z,9.42
2018-04-12T07:00:05.828Z,9.44
2018-04-12T07:02:31.829Z,9.49
2018-04-12T07:04:58.628Z,9.54
2018-04-12T07:07:24.709Z,9.55
2018-04-12T07:09:51.432Z,9.72
2018-04-12T07:12:17.477Z,9.72
2018-04-12T07:14:43.494Z,9.71
2018-04-12T07:17:09.564Z,9.81
2018-04-12T07:19:36.271Z,9.85
2018-04-12T07:22:02.299Z,9.87
2018-04-12T07:24:28.333Z,9.93
2018-04-12T07:26:54.509Z,9.88
2018-04-12T07:29:20.809Z,9.96
2018-04-12T07:31:47.545Z,9.97
2018-04-12T07:34:13.673Z,10.00
2018-04-12T07:36:39.807Z,9.88
2018-04-12T07:39:06.516Z,9.93
2018-04-12T07:41:32.510Z,10.00
2018-04-12T07:43:58.633Z,9.97
2018-04-12T07:46:24.622Z,10.02
2018-04-12T07:48:50.668Z,10.15
2018-04-12T07:51:16.664Z,10.08
2018-04-12T07:53:42.712Z,10.13
2018-04-12T07:56:08.776Z,10.20
2018-04-12T07:58:34.807Z,10.15
2018-04-12T08:01:00.816Z,10.19
2018-04-12T08:03:26.910Z,10.21
2018-04-12T08:05:53.458Z,10.17
2018-04-12T08:08:19.519Z,10.16
2018-04-12T08:10:45.630Z,10.20
2018-04-12T08:13:11.645Z,10.28
2018-04-12T08:15:37.710Z,10.31
2018-04-12T08:18:03.736Z,10.39
2018-04-12T08:20:29.830Z,10.41
2018-04-12T08:22:55.927Z,10.47
2018-04-12T08:25:21.978Z,10.45
2018-04-12T08:27:48.251Z,10.44
2018-04-12T08:30:14.231Z,10.50
2018-04-12T08:32:40.584Z,10.46
2018-04-12T08:35:06.664Z,10.44
2018-04-12T08:37:32.725Z,10.44
2018-04-12T08:39:58.781Z,10.47
2018-04-12T08:42:24.774Z,10.67
2018-04-12T08:44:50.831Z,10.74
2018-04-12T08:47:16.872Z,10.83
2018-04-12T08:49:42.945Z,10.92
2018-04-12T08:52:08.982Z,11.05
2018-04-12T08:54:35.234Z,11.23
2018-04-12T08:57:01.406Z,11.23
2018-04-12T08:59:27.444Z,11.18
2018-04-12T09:01:53.484Z,11.20
2018-04-12T09:04:19.585Z,11.22
2018-04-12T09:06:45.736Z,11.29
2018-04-12T09:09:11.761Z,11.26
2018-04-12T09:11:37.796Z,11.43
2018-04-12T09:14:03.903Z,11.51
2018-04-12T09:16:30.118Z,11.47
2018-04-12T09:18:56.146Z,11.48
2018-04-12T09:21:22.193Z,11.50
2018-04-12T09:23:48.232Z,11.45
2018-04-12T09:26:14.277Z,11.47
2018-04-12T09:28:40.305Z,11.78
2018-04-12T09:31:06.399Z,11.94
2018-04-12T09:33:32.495Z,11.92
2018-04-12T09:35:58.548Z,11.94
2018-04-12T09:38:24.652Z,11.98
2018-04-12T09:40:50.737Z,12.03
2018-04-12T09:43:16.772Z,12.17
2018-04-12T09:45:42.856Z,12.22
2018-04-12T09:48:08.926Z,12.13
2018-04-12T09:50:35.072Z,12.19
2018-04-12T09:53:01.213Z,12.23
2018-04-12T09:55:27.260Z,12.21
2018-04-12T09:57:53.368Z,12.13
2018-04-12T10:00:25.490Z,12.20
2018-04-12T10:02:55.592Z,12.16
2018-04-12T10:05:27.622Z,12.05
2018-04-12T10:07:54.208Z,12.11
2018-04-12T10:10:20.236Z,12.14
2018-04-12T10:12:46.261Z,12.07
2018-04-12T10:15:12.270Z,12.07
2018-04-12T10:17:38.360Z,12.08
2018-04-12T10:20:04.341Z,12.12
2018-04-12T10:22:30.401Z,12.18
2018-04-12T10:24:56.429Z,12.22
2018-04-12T10:27:22.458Z,12.13
2018-04-12T10:29:48.602Z,12.18
2018-04-12T10:32:14.639Z,12.18
2018-04-12T10:34:40.671Z,12.18
2018-04-12T10:37:06.873Z,12.23
2018-04-12T10:39:32.903Z,12.26
2018-04-12T10:41:58.941Z,12.38
2018-04-12T10:44:25.038Z,12.39
2018-04-12T10:46:51.108Z,12.42
2018-04-12T10:49:17.140Z,12.46
2018-04-12T10:51:43.354Z,12.59
2018-04-12T10:54:09.459Z,12.68
2018-04-12T10:56:35.603Z,12.79
2018-04-12T10:59:01.651Z,12.78
2018-04-12T11:01:27.747Z,12.78
2018-04-12T11:03:53.856Z,12.79
2018-04-12T11:06:20.556Z,12.82
2018-04-12T11:08:46.721Z,12.75
2018-04-12T11:11:12.745Z,12.98
2018-04-12T11:13:38.856Z,13.02
2018-04-12T11:16:04.926Z,13.24
2018-04-12T11:18:31.070Z,13.21
2018-04-12T11:20:57.059Z,13.10
2018-04-12T11:23:23.196Z,12.97
2018-04-12T11:25:49.279Z,12.90
2018-04-12T11:28:15.303Z,12.92
2018-04-12T11:30:41.311Z,12.87
2018-04-12T11:33:07.675Z,12.87
2018-04-12T11:35:33.797Z,13.07
2018-04-12T11:37:59.851Z,13.23
2018-04-12T11:40:26.007Z,13.49
2018-04-12T11:42:52.146Z,13.46
2018-04-12T11:45:18.232Z,13.50
2018-04-12T11:47:44.340Z,13.46
2018-04-12T11:50:10.405Z,13.52
2018-04-12T11:52:36.582Z,13.41
2018-04-12T11:55:02.728Z,13.30
2018-04-12T11:57:28.726Z,13.34
2018-04-12T11:59:54.733Z,13.21
2018-04-12T12:02:20.772Z,13.17
2018-04-12T12:04:46.794Z,13.24
2018-04-12T12:07:12.872Z,13.22
2018-04-12T12:09:38.909Z,13.23
2018-04-12T12:12:04.915Z,13.23
2018-04-12T12:14:30.998Z,13.28
2018-04-12T12:16:57.065Z,13.21
2018-04-12T12:19:23.158Z,13.19
2018-04-12T12:21:49.353Z,13.24
2018-04-12T12:24:15.445Z,13.23
2018-04-12T12:26:41.664Z,13.29
2018-04-12T12:29:07.673Z,13.23
2018-04-12T12:31:33.720Z,13.22
2018-04-12T12:33:59.877Z,13.16
2018-04-12T12:36:26.070Z,13.14
2018-04-12T12:38:52.138Z,13.05
2018-04-12T12:41:18.153Z,13.00
2018-04-12T12:43:44.316Z,12.94
2018-04-12T12:46:10.346Z,12.83
2018-04-12T12:48:36.362Z,12.86
2018-04-12T12:51:02.392Z,12.74
2018-04-12T12:53:28.414Z,12.71
2018-04-12T12:55:54.491Z,12.79
2018-04-12T12:58:20.506Z,12.78
2018-04-12T13:00:46.553Z,12.85
2018-04-12T13:03:12.825Z,12.95
2018-04-12T13:05:38.948Z,12.99
2018-04-12T13:08:05.010Z,12.92
2018-04-12T13:10:31.113Z,12.91
2018-04-12T13:12:57.206Z,12.93
2018-04-12T13:15:23.941Z,12.82
2018-04-12T13:17:50.065Z,12.69
2018-04-12T13:20:16.117Z,12.62
2018-04-12T13:22:42.153Z,12.59
2018-04-12T13:25:08.211Z,12.62
2018-04-12T13:27:34.281Z,12.65
2018-04-12T13:30:00.316Z,12.65
2018-04-12T13:32:26.409Z,12.64
2018-04-12T13:34:52.484Z,12.61
2018-04-12T13:37:18.750Z,12.64
2018-04-12T13:39:44.818Z,12.62
2018-04-12T13:42:10.905Z,12.61
2018-04-12T13:44:36.953Z,12.48
2018-04-12T13:47:02.997Z,12.54
2018-04-12T13:49:29.022Z,12.48
2018-04-12T13:51:55.108Z,12.52
2018-04-12T13:54:21.196Z,12.46
2018-04-12T13:56:47.275Z,12.55
2018-04-12T13:59:14.305Z,12.64
2018-04-12T14:01:40.438Z,12.59
2018-04-12T14:04:06.449Z,12.67
2018-04-12T14:06:32.588Z,12.72
2018-04-12T14:08:58.600Z,12.74
2018-04-12T14:11:24.680Z,12.79
2018-04-12T14:13:50.733Z,12.78
2018-04-12T14:16:16.827Z,12.84
2018-04-12T14:18:42.848Z,12.88
2018-04-12T14:21:08.894Z,12.98
2018-04-12T14:23:35.133Z,13.03
2018-04-12T14:26:01.361Z,13.09
2018-04-12T14:28:27.392Z,13.11
2018-04-12T14:30:53.494Z,13.15
2018-04-12T14:33:19.538Z,13.25
2018-04-12T14:35:45.753Z,13.16
2018-04-12T14:38:11.968Z,13.31
2018-04-12T14:40:37.981Z,13.45
2018-04-12T14:43:04.025Z,13.56
2018-04-12T14:45:30.081Z,13.59
2018-04-12T14:47:56.130Z,13.59
2018-04-12T14:50:22.199Z,13.75
2018-04-12T14:52:48.241Z,13.58
2018-04-12T14:55:14.300Z,13.79
2018-04-12T14:57:40.418Z,13.92
2018-04-12T15:00:06.438Z,14.12
2018-04-12T15:02:32.675Z,14.32
2018-04-12T15:04:59.463Z,14.45
2018-04-12T15:07:25.593Z,14.49
2018-04-12T15:09:51.722Z,14.35
2018-04-12T15:12:17.760Z,14.38
2018-04-12T15:14:43.808Z,14.29
2018-04-12T15:17:10.020Z,14.35
2018-04-12T15:19:36.269Z,14.47
2018-04-12T15:22:02.346Z,14.61
2018-04-12T15:24:28.381Z,14.72
2018-04-12T15:26:54.470Z,14.54
2018-04-12T15:29:20.606Z,14.48
2018-04-12T15:31:46.657Z,14.50
2018-04-12T15:34:12.753Z,14.38
2018-04-12T15:36:38.806Z,14.39
2018-04-12T15:39:05.925Z,14.17
2018-04-12T15:41:32.158Z,14.17
2018-04-12T15:43:58.202Z,14.13
2018-04-12T15:46:24.288Z,13.99
2018-04-12T15:48:50.386Z,13.69
2018-04-12T15:51:23.366Z,13.70
2018-04-12T15:53:49.372Z,13.58
2018-04-12T15:56:15.540Z,13.59
2018-04-12T15:58:41.758Z,13.67
2018-04-12T16:01:08.336Z,13.74
2018-04-12T16:03:34.430Z,13.82
2018-04-12T16:06:00.509Z,13.78
2018-04-12T16:08:26.560Z,13.78
2018-04-12T16:10:52.595Z,13.69
2018-04-12T16:13:18.631Z,13.68
2018-04-12T16:15:44.741Z,13.64
2018-04-12T16:18:10.795Z,13.61
2018-04-12T16:20:36.862Z,13.59
2018-04-12T16:23:02.940Z,13.53
2018-04-12T16:25:29.017Z,13.53
2018-04-12T16:27:55.165Z,13.54
2018-04-12T16:30:21.216Z,13.55
2018-04-12T16:32:47.271Z,13.51
2018-04-12T16:35:13.299Z,13.59
2018-04-12T16:37:39.377Z,13.64
2018-04-12T16:40:05.394Z,13.73
2018-04-12T16:42:31.484Z,13.76
2018-04-12T16:44:57.583Z,13.83
2018-04-12T16:47:23.669Z,13.77
2018-04-12T16:49:49.841Z,13.78
2018-04-12T16:52:15.944Z,13.78
2018-04-12T16:54:41.995Z,13.65
2018-04-12T16:57:08.120Z,13.61
2018-04-12T16:59:34.247Z,13.56
2018-04-12T17:02:00.267Z,13.55
2018-04-12T17:04:26.294Z,13.53
2018-04-12T17:06:52.453Z,13.55
2018-04-12T17:09:18.467Z,13.65
2018-04-12T17:11:44.508Z,13.74
2018-04-12T17:14:10.574Z,13.75
2018-04-12T17:16:36.706Z,13.75
2018-04-12T17:19:02.712Z,13.78
2018-04-12T17:21:28.772Z,13.76
2018-04-12T17:23:54.812Z,13.76
2018-04-12T17:26:20.897Z,13.74
2018-04-12T17:28:46.932Z,13.72
2018-04-12T17:31:12.984Z,13.67
2018-04-12T17:33:39.225Z,13.69
2018-04-12T17:36:05.276Z,13.69
2018-04-12T17:38:31.310Z,13.64
2018-04-12T17:40:57.437Z,13.58
2018-04-12T17:43:23.573Z,13.58
2018-04-12T17:45:49.737Z,13.41
2018-04-12T17:48:15.784Z,13.35
2018-04-12T17:50:41.875Z,13.22
2018-04-12T17:53:15.600Z,13.16
2018-04-12T17:55:41.744Z,13.09
2018-04-12T17:58:07.769Z,13.04
2018-04-12T18:00:33.898Z,13.03
2018-04-12T18:03:00.945Z,12.92
2018-04-12T18:05:27.034Z,12.88
2018-04-12T18:07:53.221Z,12.86
2018-04-12T18:10:19.288Z,12.82
2018-04-12T18:12:45.373Z,12.78
2018-04-12T18:15:11.546Z,12.73
2018-04-12T18:17:37.613Z,12.66
2018-04-12T18:20:03.711Z,12.58
2018-04-12T18:22:29.722Z,12.53
2018-04-12T18:24:55.835Z,12.47
2018-04-12T18:27:22.028Z,12.38
2018-04-12T18:29:48.201Z,12.38
2018-04-12T18:32:14.275Z,12.34
2018-04-12T18:34:40.332Z,12.27
2018-04-12T18:37:06.419Z,12.27
2018-04-12T18:39:32.629Z,12.24
2018-04-12T18:41:58.715Z,12.20
2018-04-12T18:44:24.916Z,12.23
2018-04-12T18:46:50.948Z,12.20
2018-04-12T18:49:17.020Z,12.16
2018-04-12T18:51:43.073Z,12.14
2018-04-12T18:54:09.203Z,12.14
2018-04-12T18:56:35.393Z,12.12
2018-04-12T18:59:01.497Z,12.12
2018-04-12T19:01:27.780Z,12.13
2018-04-12T19:03:53.864Z,12.09
2018-04-12T19:06:20.038Z,12.06
2018-04-12T19:08:46.225Z,12.04
2018-04-12T19:11:12.349Z,12.02
2018-04-12T19:13:38.397Z,12.00
2018-04-12T19:16:04.483Z,11.98
2018-04-12T19:18:30.575Z,11.96
2018-04-12T19:20:56.575Z,11.94
2018-04-12T19:23:22.611Z,11.96
2018-04-12T19:25:48.703Z,11.93
2018-04-12T19:28:14.772Z,11.89
2018-04-12T19:30:40.805Z,11.89
2018-04-12T19:33:09.511Z,11.88
2018-04-12T19:35:35.612Z,11.84
2018-04-12T19:38:01.693Z,11.83
2018-04-12T19:40:27.936Z,11.83
2018-04-12T19:42:54.088Z,11.83
2018-04-12T19:45:20.211Z,11.82
2018-04-12T19:47:46.269Z,11.82
2018-04-12T19:50:12.364Z,11.78
2018-04-12T19:52:38.571Z,11.75
2018-04-12T19:55:04.723Z,11.73
2018-04-12T19:57:30.774Z,11.70
2018-04-12T19:59:56.823Z,11.68
2018-04-12T20:02:22.904Z,11.62
2018-04-12T20:04:48.989Z,11.60
2018-04-12T20:07:15.077Z,11.55
2018-04-12T20:09:41.191Z,11.52
2018-04-12T20:12:07.225Z,11.47
2018-04-12T20:14:33.330Z,11.44
2018-04-12T20:16:59.373Z,11.39
2018-04-12T20:19:26.230Z,11.36
2018-04-12T20:21:52.311Z,11.32
2018-04-12T20:24:18.395Z,11.27
2018-04-12T20:26:44.494Z,11.25
2018-04-12T20:29:10.572Z,11.21
2018-04-12T20:31:36.681Z,11.18
2018-04-12T20:34:02.804Z,11.14
2018-04-12T20:36:28.896Z,11.12
2018-04-12T20:38:55.002Z,11.08
2018-04-12T20:41:21.104Z,11.05
2018-04-12T20:43:47.279Z,11.03
2018-04-12T20:46:13.427Z,11.02
2018-04-12T20:48:39.428Z,10.99
2018-04-12T20:51:05.547Z,10.96
2018-04-12T20:53:31.677Z,10.95
2018-04-12T20:55:57.869Z,10.92
2018-04-12T20:58:23.996Z,10.91
2018-04-12T21:00:50.068Z,10.90
2018-04-12T21:03:16.154Z,10.86
2018-04-12T21:05:42.283Z,10.88
2018-04-12T21:08:08.302Z,10.86
2018-04-12T21:10:34.313Z,10.82
2018-04-12T21:13:00.407Z,10.77
2018-04-12T21:15:26.885Z,10.74
2018-04-12T21:17:52.980Z,10.70
2018-04-12T21:20:19.009Z,10.64
2018-04-12T21:22:45.075Z,10.61
2018-04-12T21:25:11.146Z,10.56
2018-04-12T21:27:37.230Z,10.52
2018-04-12T21:30:03.293Z,10.48
2018-04-12T21:32:30.156Z,10.44
2018-04-12T21:34:56.203Z,10.41
2018-04-12T21:37:22.377Z,10.38
2018-04-12T21:39:48.376Z,10.34
2018-04-12T21:42:14.393Z,10.27
2018-04-12T21:44:40.496Z,10.26
2018-04-12T21:47:06.544Z,10.21
2018-04-12T21:49:32.652Z,10.18
2018-04-12T21:51:58.661Z,10.13
2018-04-12T21:54:24.705Z,10.09
2018-04-12T21:56:50.954Z,10.05
2018-04-12T21:59:17.026Z,10.00
2018-04-12T22:01:43.112Z,9.96
2018-04-12T22:04:09.156Z,9.92
2018-04-12T22:06:35.181Z,9.89
2018-04-12T22:09:01.224Z,9.85
2018-04-12T22:11:27.607Z,9.82
2018-04-12T22:13:53.652Z,9.78
2018-04-12T22:16:19.946Z,9.74
2018-04-12T22:18:46.029Z,9.70
2018-04-12T22:21:12.071Z,9.67
2018-04-12T22:23:38.121Z,9.63
2018-04-12T22:26:04.812Z,9.60
2018-04-12T22:28:31.147Z,9.56
2018-04-12T22:30:57.176Z,9.53
2018-04-12T22:33:23.195Z,9.51
2018-04-12T22:35:49.314Z,9.49
2018-04-12T22:38:15.401Z,9.45
2018-04-12T22:40:41.436Z,9.43
2018-04-12T22:43:07.552Z,9.40
2018-04-12T22:45:33.612Z,9.38
2018-04-12T22:47:59.634Z,9.36
2018-04-12T22:50:25.675Z,9.32
2018-04-12T22:52:51.702Z,9.27
2018-04-12T22:55:17.930Z,9.24
2018-04-12T22:57:43.968Z,9.21
2018-04-12T23:00:10.144Z,9.20
2018-04-12T23:02:36.175Z,9.15
2018-04-12T23:05:02.209Z,9.15
2018-04-12T23:07:28.397Z,9.11
2018-04-12T23:09:54.427Z,9.08
2018-04-12T23:12:20.473Z,9.08
2018-04-12T23:14:46.504Z,9.06
2018-04-12T23:17:12.533Z,9.03
2018-04-12T23:19:38.530Z,9.00
2018-04-12T23:22:04.571Z,8.98
2018-04-12T23:24:30.557Z,8.95
2018-04-12T23:26:56.668Z,8.91
2018-04-12T23:29:22.654Z,8.88
2018-04-12T23:31:48.682Z,8.83
2018-04-12T23:34:14.776Z,8.78
2018-04-12T23:36:40.875Z,8.78
2018-04-12T23:39:06.860Z,8.75
2018-04-12T23:41:32.874Z,8.70
2018-04-12T23:43:58.915Z,8.70
2018-04-12T23:46:25.021Z,8.65
2018-04-12T23:48:51.058Z,8.61
2018-04-12T23:51:17.075Z,8.57
2018-04-12T23:53:43.979Z,8.57
2018-04-12T23:56:10.107Z,8.54
2018-04-12T23:58:36.216Z,8.49
